<?xml version="1.0" encoding="UTF-8" standalone="no" ?><gpx xmlns="http://www.topografix.com/GPX/1/1" xmlns:gpxx="http://www.garmin.com/xmlschemas/GpxExtensions/v3" xmlns:wptx1="http://www.garmin.com/xmlschemas/WaypointExtension/v1" xmlns:gpxtpx="http://www.garmin.com/xmlschemas/TrackPointExtension/v1" creator="Dakota 20" version="1.1" xmlns:xsi="http://www.w3.org/2001/XMLSchema-instance" xsi:schemaLocation="http://www.topografix.com/GPX/1/1 http://www.topografix.com/GPX/1/1/gpx.xsd http://www.garmin.com/xmlschemas/GpxExtensions/v3 http://www8.garmin.com/xmlschemas/GpxExtensionsv3.xsd http://www.garmin.com/xmlschemas/WaypointExtension/v1 http://www8.garmin.com/xmlschemas/WaypointExtensionv1.xsd http://www.garmin.com/xmlschemas/TrackPointExtension/v1 http://www.garmin.com/xmlschemas/TrackPointExtensionv1.xsd"><metadata><link href="http://www.garmin.com"><text>Garmin International</text></link><time>2014-07-23T15:07:11Z</time></metadata><trk><name>Current Track: 23 JUL 2014 10:01</name><extensions><gpxx:TrackExtension><gpxx:DisplayColor>Cyan</gpxx:DisplayColor></gpxx:TrackExtension></extensions><trkseg><trkpt lat="51.8263798580" lon="-2.0468404703"><ele>190.00</ele><time>2014-07-23T09:01:18Z</time></trkpt><trkpt lat="51.8263562210" lon="-2.0468932763"><ele>189.04</ele><time>2014-07-23T09:01:34Z</time></trkpt><trkpt lat="51.8262584880" lon="-2.0469184220"><ele>189.04</ele><time>2014-07-23T09:01:56Z</time></trkpt><trkpt lat="51.8261314183" lon="-2.0469510276"><ele>190.48</ele><time>2014-07-23T09:02:18Z</time></trkpt><trkpt lat="51.8261465896" lon="-2.0469931886"><ele>190.96</ele><time>2014-07-23T09:02:22Z</time></trkpt><trkpt lat="51.8261975516" lon="-2.0471240301"><ele>188.08</ele><time>2014-07-23T09:02:32Z</time></trkpt><trkpt lat="51.8261994794" lon="-2.0471300650"><ele>191.44</ele><time>2014-07-23T09:02:33Z</time></trkpt><trkpt lat="51.8262006529" lon="-2.0471355971"><ele>188.08</ele><time>2014-07-23T09:02:36Z</time></trkpt><trkpt lat="51.8262006529" lon="-2.0471341722"><ele>191.92</ele><time>2014-07-23T09:02:37Z</time></trkpt><trkpt lat="51.8261011597" lon="-2.0471121278"><ele>192.40</ele><time>2014-07-23T09:02:54Z</time></trkpt><trkpt lat="51.8259696476" lon="-2.0471059252"><ele>195.28</ele><time>2014-07-23T09:03:04Z</time></trkpt><trkpt lat="51.8259577453" lon="-2.0471035782"><ele>192.40</ele><time>2014-07-23T09:03:05Z</time></trkpt><trkpt lat="51.8258865830" lon="-2.0470896643"><ele>190.96</ele><time>2014-07-23T09:03:11Z</time></trkpt><trkpt lat="51.8258235510" lon="-2.0470993035"><ele>190.48</ele><time>2014-07-23T09:03:15Z</time></trkpt><trkpt lat="51.8258062005" lon="-2.0471060928"><ele>194.32</ele><time>2014-07-23T09:03:16Z</time></trkpt><trkpt lat="51.8254912924" lon="-2.0470532030"><ele>195.77</ele><time>2014-07-23T09:03:34Z</time></trkpt><trkpt lat="51.8254748639" lon="-2.0470351819"><ele>196.73</ele><time>2014-07-23T09:03:35Z</time></trkpt><trkpt lat="51.8254250754" lon="-2.0468901750"><ele>196.25</ele><time>2014-07-23T09:03:46Z</time></trkpt><trkpt lat="51.8254265841" lon="-2.0468211081"><ele>195.28</ele><time>2014-07-23T09:03:50Z</time></trkpt><trkpt lat="51.8254429288" lon="-2.0467950404"><ele>196.73</ele><time>2014-07-23T09:03:54Z</time></trkpt><trkpt lat="51.8254501373" lon="-2.0467289910"><ele>194.32</ele><time>2014-07-23T09:03:58Z</time></trkpt><trkpt lat="51.8254563399" lon="-2.0466990676"><ele>196.25</ele><time>2014-07-23T09:04:00Z</time></trkpt><trkpt lat="51.8254585192" lon="-2.0465652924"><ele>193.84</ele><time>2014-07-23T09:04:11Z</time></trkpt><trkpt lat="51.8254287634" lon="-2.0465071220"><ele>196.73</ele><time>2014-07-23T09:04:14Z</time></trkpt><trkpt lat="51.8253623787" lon="-2.0464105625"><ele>194.32</ele><time>2014-07-23T09:04:20Z</time></trkpt><trkpt lat="51.8253528234" lon="-2.0463155117"><ele>193.84</ele><time>2014-07-23T09:04:26Z</time></trkpt><trkpt lat="51.8253151048" lon="-2.0461640507"><ele>193.36</ele><time>2014-07-23T09:04:34Z</time></trkpt><trkpt lat="51.8252995145" lon="-2.0461158548"><ele>195.28</ele><time>2014-07-23T09:04:36Z</time></trkpt><trkpt lat="51.8252933957" lon="-2.0460405014"><ele>192.40</ele><time>2014-07-23T09:04:41Z</time></trkpt><trkpt lat="51.8252882827" lon="-2.0460016094"><ele>195.28</ele><time>2014-07-23T09:04:43Z</time></trkpt><trkpt lat="51.8252618797" lon="-2.0459350571"><ele>192.88</ele><time>2014-07-23T09:04:47Z</time></trkpt><trkpt lat="51.8251555972" lon="-2.0457089134"><ele>196.25</ele><time>2014-07-23T09:05:01Z</time></trkpt><trkpt lat="51.8251410127" lon="-2.0456896350"><ele>192.88</ele><time>2014-07-23T09:05:03Z</time></trkpt><trkpt lat="51.8251343071" lon="-2.0456775650"><ele>195.77</ele><time>2014-07-23T09:05:04Z</time></trkpt><trkpt lat="51.8251194712" lon="-2.0456435345"><ele>192.40</ele><time>2014-07-23T09:05:07Z</time></trkpt><trkpt lat="51.8251113407" lon="-2.0456202328"><ele>195.77</ele><time>2014-07-23T09:05:11Z</time></trkpt><trkpt lat="51.8251146097" lon="-2.0455864538"><ele>191.44</ele><time>2014-07-23T09:05:14Z</time></trkpt><trkpt lat="51.8251136038" lon="-2.0455480646"><ele>194.80</ele><time>2014-07-23T09:05:20Z</time></trkpt><trkpt lat="51.8251091614" lon="-2.0454388484"><ele>191.92</ele><time>2014-07-23T09:05:24Z</time></trkpt><trkpt lat="51.8250908889" lon="-2.0453277044"><ele>195.28</ele><time>2014-07-23T09:05:27Z</time></trkpt><trkpt lat="51.8250726163" lon="-2.0452875551"><ele>191.92</ele><time>2014-07-23T09:05:29Z</time></trkpt><trkpt lat="51.8250639830" lon="-2.0452681091"><ele>191.92</ele><time>2014-07-23T09:05:30Z</time></trkpt><trkpt lat="51.8250026274" lon="-2.0451471582"><ele>191.92</ele><time>2014-07-23T09:05:38Z</time></trkpt><trkpt lat="51.8249917310" lon="-2.0451029856"><ele>194.80</ele><time>2014-07-23T09:05:41Z</time></trkpt><trkpt lat="51.8249845225" lon="-2.0450754929"><ele>190.96</ele><time>2014-07-23T09:05:43Z</time></trkpt><trkpt lat="51.8249625620" lon="-2.0450003911"><ele>194.32</ele><time>2014-07-23T09:05:48Z</time></trkpt><trkpt lat="51.8249533419" lon="-2.0449552964"><ele>190.96</ele><time>2014-07-23T09:05:50Z</time></trkpt><trkpt lat="51.8249493185" lon="-2.0449338388"><ele>192.40</ele><time>2014-07-23T09:05:51Z</time></trkpt><trkpt lat="51.8249297049" lon="-2.0448532887"><ele>192.88</ele><time>2014-07-23T09:05:56Z</time></trkpt><trkpt lat="51.8248000368" lon="-2.0447523706"><ele>192.88</ele><time>2014-07-23T09:06:01Z</time></trkpt><trkpt lat="51.8247670960" lon="-2.0447064377"><ele>192.40</ele><time>2014-07-23T09:06:05Z</time></trkpt><trkpt lat="51.8246540241" lon="-2.0444912743"><ele>190.48</ele><time>2014-07-23T09:06:23Z</time></trkpt><trkpt lat="51.8245201651" lon="-2.0442694053"><ele>190.00</ele><time>2014-07-23T09:06:44Z</time></trkpt><trkpt lat="51.8244583067" lon="-2.0441801380"><ele>190.00</ele><time>2014-07-23T09:06:52Z</time></trkpt><trkpt lat="51.8244454823" lon="-2.0441646315"><ele>186.15</ele><time>2014-07-23T09:06:54Z</time></trkpt><trkpt lat="51.8244371004" lon="-2.0441386476"><ele>189.52</ele><time>2014-07-23T09:06:56Z</time></trkpt><trkpt lat="51.8243999686" lon="-2.0441045333"><ele>186.15</ele><time>2014-07-23T09:07:01Z</time></trkpt><trkpt lat="51.8243492581" lon="-2.0440614503"><ele>187.59</ele><time>2014-07-23T09:07:07Z</time></trkpt><trkpt lat="51.8242796883" lon="-2.0440005977"><ele>190.96</ele><time>2014-07-23T09:07:21Z</time></trkpt><trkpt lat="51.8242776766" lon="-2.0440004300"><ele>190.48</ele><time>2014-07-23T09:07:22Z</time></trkpt><trkpt lat="51.8242742401" lon="-2.0440003462"><ele>187.11</ele><time>2014-07-23T09:07:23Z</time></trkpt><trkpt lat="51.8242692947" lon="-2.0439998433"><ele>189.04</ele><time>2014-07-23T09:07:24Z</time></trkpt><trkpt lat="51.8241480924" lon="-2.0439791400"><ele>192.40</ele><time>2014-07-23T09:07:36Z</time></trkpt><trkpt lat="51.8241365254" lon="-2.0439710934"><ele>188.56</ele><time>2014-07-23T09:07:37Z</time></trkpt><trkpt lat="51.8241205998" lon="-2.0439520665"><ele>190.48</ele><time>2014-07-23T09:07:38Z</time></trkpt><trkpt lat="51.8239844777" lon="-2.0437016152"><ele>191.44</ele><time>2014-07-23T09:07:55Z</time></trkpt><trkpt lat="51.8239785265" lon="-2.0436759666"><ele>190.48</ele><time>2014-07-23T09:07:57Z</time></trkpt><trkpt lat="51.8239719048" lon="-2.0436342247"><ele>194.80</ele><time>2014-07-23T09:08:00Z</time></trkpt><trkpt lat="51.8239716534" lon="-2.0435918961"><ele>190.48</ele><time>2014-07-23T09:08:05Z</time></trkpt><trkpt lat="51.8239809573" lon="-2.0435474720"><ele>194.32</ele><time>2014-07-23T09:08:08Z</time></trkpt><trkpt lat="51.8239777721" lon="-2.0435131900"><ele>190.48</ele><time>2014-07-23T09:08:11Z</time></trkpt><trkpt lat="51.8239653669" lon="-2.0434404351"><ele>193.84</ele><time>2014-07-23T09:08:15Z</time></trkpt><trkpt lat="51.8238805421" lon="-2.0431292150"><ele>196.25</ele><time>2014-07-23T09:08:37Z</time></trkpt><trkpt lat="51.8238639459" lon="-2.0430554543"><ele>192.40</ele><time>2014-07-23T09:08:41Z</time></trkpt><trkpt lat="51.8238584138" lon="-2.0430303086"><ele>192.40</ele><time>2014-07-23T09:08:42Z</time></trkpt><trkpt lat="51.8238384649" lon="-2.0429674443"><ele>196.25</ele><time>2014-07-23T09:08:45Z</time></trkpt><trkpt lat="51.8238293286" lon="-2.0429213438"><ele>191.92</ele><time>2014-07-23T09:08:47Z</time></trkpt><trkpt lat="51.8238286581" lon="-2.0429026522"><ele>192.88</ele><time>2014-07-23T09:08:48Z</time></trkpt><trkpt lat="51.8238373753" lon="-2.0428322442"><ele>196.25</ele><time>2014-07-23T09:08:53Z</time></trkpt><trkpt lat="51.8238405604" lon="-2.0428099483"><ele>192.40</ele><time>2014-07-23T09:08:55Z</time></trkpt><trkpt lat="51.8238425720" lon="-2.0427981298"><ele>192.88</ele><time>2014-07-23T09:08:56Z</time></trkpt><trkpt lat="51.8238496128" lon="-2.0427544601"><ele>196.25</ele><time>2014-07-23T09:08:59Z</time></trkpt><trkpt lat="51.8237358704" lon="-2.0425846428"><ele>191.92</ele><time>2014-07-23T09:09:09Z</time></trkpt><trkpt lat="51.8237325177" lon="-2.0425535459"><ele>195.28</ele><time>2014-07-23T09:09:12Z</time></trkpt><trkpt lat="51.8237391394" lon="-2.0424774382"><ele>191.92</ele><time>2014-07-23T09:09:18Z</time></trkpt><trkpt lat="51.8237437494" lon="-2.0424051862"><ele>196.73</ele><time>2014-07-23T09:09:23Z</time></trkpt><trkpt lat="51.8237448391" lon="-2.0423746761"><ele>193.36</ele><time>2014-07-23T09:09:25Z</time></trkpt><trkpt lat="51.8237517122" lon="-2.0423090458"><ele>196.73</ele><time>2014-07-23T09:09:29Z</time></trkpt><trkpt lat="51.8236513808" lon="-2.0420842431"><ele>195.77</ele><time>2014-07-23T09:09:44Z</time></trkpt><trkpt lat="51.8236367125" lon="-2.0420023520"><ele>195.28</ele><time>2014-07-23T09:09:51Z</time></trkpt><trkpt lat="51.8236322701" lon="-2.0419096481"><ele>197.21</ele><time>2014-07-23T09:09:57Z</time></trkpt><trkpt lat="51.8236319348" lon="-2.0418588538"><ele>193.84</ele><time>2014-07-23T09:10:00Z</time></trkpt><trkpt lat="51.8236284982" lon="-2.0418226440"><ele>197.21</ele><time>2014-07-23T09:10:03Z</time></trkpt><trkpt lat="51.8236263189" lon="-2.0417918824"><ele>193.36</ele><time>2014-07-23T09:10:05Z</time></trkpt><trkpt lat="51.8236238044" lon="-2.0417747833"><ele>194.32</ele><time>2014-07-23T09:10:06Z</time></trkpt><trkpt lat="51.8235971499" lon="-2.0416898746"><ele>197.69</ele><time>2014-07-23T09:10:11Z</time></trkpt><trkpt lat="51.8235857505" lon="-2.0416645613"><ele>193.36</ele><time>2014-07-23T09:10:13Z</time></trkpt><trkpt lat="51.8235813081" lon="-2.0416535810"><ele>194.80</ele><time>2014-07-23T09:10:14Z</time></trkpt><trkpt lat="51.8235526420" lon="-2.0416138507"><ele>194.80</ele><time>2014-07-23T09:10:18Z</time></trkpt><trkpt lat="51.8235303462" lon="-2.0415749587"><ele>192.88</ele><time>2014-07-23T09:10:21Z</time></trkpt><trkpt lat="51.8235236406" lon="-2.0415566023"><ele>194.80</ele><time>2014-07-23T09:10:22Z</time></trkpt><trkpt lat="51.8234976567" lon="-2.0414823387"><ele>194.80</ele><time>2014-07-23T09:10:27Z</time></trkpt><trkpt lat="51.8234578427" lon="-2.0413515810"><ele>193.84</ele><time>2014-07-23T09:10:36Z</time></trkpt><trkpt lat="51.8234982435" lon="-2.0411885530"><ele>194.80</ele><time>2014-07-23T09:10:47Z</time></trkpt><trkpt lat="51.8234976567" lon="-2.0411160495"><ele>191.92</ele><time>2014-07-23T09:10:50Z</time></trkpt><trkpt lat="51.8234932981" lon="-2.0410890598"><ele>192.88</ele><time>2014-07-23T09:10:51Z</time></trkpt><trkpt lat="51.8234820664" lon="-2.0410366729"><ele>194.32</ele><time>2014-07-23T09:10:53Z</time></trkpt><trkpt lat="51.8234865926" lon="-2.0408556238"><ele>192.40</ele><time>2014-07-23T09:11:04Z</time></trkpt><trkpt lat="51.8234732654" lon="-2.0407729782"><ele>195.28</ele><time>2014-07-23T09:11:08Z</time></trkpt><trkpt lat="51.8234464433" lon="-2.0407096948"><ele>192.40</ele><time>2014-07-23T09:11:12Z</time></trkpt><trkpt lat="51.8233822379" lon="-2.0405908395"><ele>191.44</ele><time>2014-07-23T09:11:19Z</time></trkpt><trkpt lat="51.8232963234" lon="-2.0404135622"><ele>190.00</ele><time>2014-07-23T09:11:28Z</time></trkpt><trkpt lat="51.8232888635" lon="-2.0403927751"><ele>189.52</ele><time>2014-07-23T09:11:29Z</time></trkpt><trkpt lat="51.8232876062" lon="-2.0403501112"><ele>192.40</ele><time>2014-07-23T09:11:32Z</time></trkpt><trkpt lat="51.8232809845" lon="-2.0403040107"><ele>189.52</ele><time>2014-07-23T09:11:35Z</time></trkpt><trkpt lat="51.8232726026" lon="-2.0402815472"><ele>191.44</ele><time>2014-07-23T09:11:41Z</time></trkpt><trkpt lat="51.8232023623" lon="-2.0402778592"><ele>190.96</ele><time>2014-07-23T09:11:50Z</time></trkpt><trkpt lat="51.8230214808" lon="-2.0400658809"><ele>190.96</ele><time>2014-07-23T09:12:10Z</time></trkpt><trkpt lat="51.8229711056" lon="-2.0400137454"><ele>190.96</ele><time>2014-07-23T09:12:14Z</time></trkpt><trkpt lat="51.8227951694" lon="-2.0399597660"><ele>192.40</ele><time>2014-07-23T09:12:31Z</time></trkpt><trkpt lat="51.8227585405" lon="-2.0399516355"><ele>189.04</ele><time>2014-07-23T09:12:34Z</time></trkpt><trkpt lat="51.8227444589" lon="-2.0399474446"><ele>189.52</ele><time>2014-07-23T09:12:35Z</time></trkpt><trkpt lat="51.8225437123" lon="-2.0398482028"><ele>186.63</ele><time>2014-07-23T09:12:54Z</time></trkpt><trkpt lat="51.8224484939" lon="-2.0397403277"><ele>185.19</ele><time>2014-07-23T09:13:05Z</time></trkpt><trkpt lat="51.8224322330" lon="-2.0397186186"><ele>186.15</ele><time>2014-07-23T09:13:07Z</time></trkpt><trkpt lat="51.8224272877" lon="-2.0397190377"><ele>183.75</ele><time>2014-07-23T09:13:11Z</time></trkpt><trkpt lat="51.8223641720" lon="-2.0396534074"><ele>186.15</ele><time>2014-07-23T09:13:17Z</time></trkpt><trkpt lat="51.8223425467" lon="-2.0396555867"><ele>184.71</ele><time>2014-07-23T09:13:19Z</time></trkpt><trkpt lat="51.8223400321" lon="-2.0396700036"><ele>180.87</ele><time>2014-07-23T09:13:33Z</time></trkpt><trkpt lat="51.8223471567" lon="-2.0396671537"><ele>183.75</ele><time>2014-07-23T09:13:34Z</time></trkpt><trkpt lat="51.8223664351" lon="-2.0396720152"><ele>182.79</ele><time>2014-07-23T09:13:39Z</time></trkpt><trkpt lat="51.8223577179" lon="-2.0396083128"><ele>184.23</ele><time>2014-07-23T09:13:49Z</time></trkpt><trkpt lat="51.8223531917" lon="-2.0395780541"><ele>185.19</ele><time>2014-07-23T09:13:51Z</time></trkpt><trkpt lat="51.8223280460" lon="-2.0395647269"><ele>182.31</ele><time>2014-07-23T09:13:53Z</time></trkpt><trkpt lat="51.8223018106" lon="-2.0395255834"><ele>186.63</ele><time>2014-07-23T09:13:58Z</time></trkpt><trkpt lat="51.8223047443" lon="-2.0394969173"><ele>180.87</ele><time>2014-07-23T09:14:00Z</time></trkpt><trkpt lat="51.8223009724" lon="-2.0394777227"><ele>184.23</ele><time>2014-07-23T09:14:01Z</time></trkpt><trkpt lat="51.8222813588" lon="-2.0392887108"><ele>182.79</ele><time>2014-07-23T09:14:12Z</time></trkpt><trkpt lat="51.8222704623" lon="-2.0392604638"><ele>188.08</ele><time>2014-07-23T09:14:15Z</time></trkpt><trkpt lat="51.8222505134" lon="-2.0389976911"><ele>187.11</ele><time>2014-07-23T09:14:35Z</time></trkpt><trkpt lat="51.8222790956" lon="-2.0386565477"><ele>189.04</ele><time>2014-07-23T09:14:53Z</time></trkpt><trkpt lat="51.8222996313" lon="-2.0385708008"><ele>189.52</ele><time>2014-07-23T09:14:58Z</time></trkpt><trkpt lat="51.8223828636" lon="-2.0383163262"><ele>190.48</ele><time>2014-07-23T09:15:20Z</time></trkpt><trkpt lat="51.8223564606" lon="-2.0381973032"><ele>190.00</ele><time>2014-07-23T09:15:26Z</time></trkpt><trkpt lat="51.8223020621" lon="-2.0380857401"><ele>190.48</ele><time>2014-07-23T09:15:32Z</time></trkpt><trkpt lat="51.8222919200" lon="-2.0380469318"><ele>191.92</ele><time>2014-07-23T09:15:34Z</time></trkpt><trkpt lat="51.8222195841" lon="-2.0379018411"><ele>192.40</ele><time>2014-07-23T09:15:46Z</time></trkpt><trkpt lat="51.8222002219" lon="-2.0378960576"><ele>192.40</ele><time>2014-07-23T09:16:04Z</time></trkpt><trkpt lat="51.8221684545" lon="-2.0378921181"><ele>192.88</ele><time>2014-07-23T09:16:08Z</time></trkpt><trkpt lat="51.8220879883" lon="-2.0378784556"><ele>194.80</ele><time>2014-07-23T09:16:20Z</time></trkpt><trkpt lat="51.8220334221" lon="-2.0379102230"><ele>195.77</ele><time>2014-07-23T09:16:37Z</time></trkpt><trkpt lat="51.8219388742" lon="-2.0379426610"><ele>197.21</ele><time>2014-07-23T09:16:55Z</time></trkpt><trkpt lat="51.8218242098" lon="-2.0379696507"><ele>198.65</ele><time>2014-07-23T09:17:15Z</time></trkpt><trkpt lat="51.8216985650" lon="-2.0379409846"><ele>200.09</ele><time>2014-07-23T09:17:36Z</time></trkpt><trkpt lat="51.8216615170" lon="-2.0380838960"><ele>200.57</ele><time>2014-07-23T09:17:55Z</time></trkpt><trkpt lat="51.8215971440" lon="-2.0381537173"><ele>202.49</ele><time>2014-07-23T09:18:07Z</time></trkpt><trkpt lat="51.8214811385" lon="-2.0382599160"><ele>204.42</ele><time>2014-07-23T09:18:26Z</time></trkpt><trkpt lat="51.8213599361" lon="-2.0384063479"><ele>206.34</ele><time>2014-07-23T09:18:45Z</time></trkpt><trkpt lat="51.8212544918" lon="-2.0385153126"><ele>208.26</ele><time>2014-07-23T09:19:09Z</time></trkpt><trkpt lat="51.8211056292" lon="-2.0386010595"><ele>209.70</ele><time>2014-07-23T09:19:30Z</time></trkpt><trkpt lat="51.8210520688" lon="-2.0386310667"><ele>213.07</ele><time>2014-07-23T09:19:36Z</time></trkpt><trkpt lat="51.8208814133" lon="-2.0386700425"><ele>214.51</ele><time>2014-07-23T09:19:58Z</time></trkpt><trkpt lat="51.8208384980" lon="-2.0386562962"><ele>214.03</ele><time>2014-07-23T09:20:17Z</time></trkpt><trkpt lat="51.8208716065" lon="-2.0386443101"><ele>214.99</ele><time>2014-07-23T09:20:41Z</time></trkpt><trkpt lat="51.8208796531" lon="-2.0386034064"><ele>215.95</ele><time>2014-07-23T09:21:02Z</time></trkpt><trkpt lat="51.8208485562" lon="-2.0385770872"><ele>216.43</ele><time>2014-07-23T09:21:06Z</time></trkpt><trkpt lat="51.8206893839" lon="-2.0385107026"><ele>218.84</ele><time>2014-07-23T09:21:20Z</time></trkpt><trkpt lat="51.8205828499" lon="-2.0383705571"><ele>222.20</ele><time>2014-07-23T09:21:38Z</time></trkpt><trkpt lat="51.8205179740" lon="-2.0382192638"><ele>222.20</ele><time>2014-07-23T09:21:55Z</time></trkpt><trkpt lat="51.8204647489" lon="-2.0380639471"><ele>223.64</ele><time>2014-07-23T09:22:14Z</time></trkpt><trkpt lat="51.8203848694" lon="-2.0378854964"><ele>226.05</ele><time>2014-07-23T09:22:33Z</time></trkpt><trkpt lat="51.8203349132" lon="-2.0377290063"><ele>227.01</ele><time>2014-07-23T09:22:51Z</time></trkpt><trkpt lat="51.8201571330" lon="-2.0374569297"><ele>227.49</ele><time>2014-07-23T09:23:14Z</time></trkpt><trkpt lat="51.8200649321" lon="-2.0374951512"><ele>227.49</ele><time>2014-07-23T09:23:39Z</time></trkpt><trkpt lat="51.8201298919" lon="-2.0374213066"><ele>227.49</ele><time>2014-07-23T09:23:58Z</time></trkpt><trkpt lat="51.8200526945" lon="-2.0373246633"><ele>228.45</ele><time>2014-07-23T09:24:14Z</time></trkpt><trkpt lat="51.8198825419" lon="-2.0371904690"><ele>230.85</ele><time>2014-07-23T09:24:36Z</time></trkpt><trkpt lat="51.8197767623" lon="-2.0371091645"><ele>231.33</ele><time>2014-07-23T09:24:48Z</time></trkpt><trkpt lat="51.8195725791" lon="-2.0368906483"><ele>232.78</ele><time>2014-07-23T09:25:12Z</time></trkpt><trkpt lat="51.8193788733" lon="-2.0367323980"><ele>233.74</ele><time>2014-07-23T09:25:33Z</time></trkpt><trkpt lat="51.8192687351" lon="-2.0366645884"><ele>237.10</ele><time>2014-07-23T09:25:49Z</time></trkpt><trkpt lat="51.8191041984" lon="-2.0364645123"><ele>237.58</ele><time>2014-07-23T09:26:10Z</time></trkpt><trkpt lat="51.8189447746" lon="-2.0363140572"><ele>238.54</ele><time>2014-07-23T09:26:31Z</time></trkpt><trkpt lat="51.8188969977" lon="-2.0362890791"><ele>237.58</ele><time>2014-07-23T09:26:55Z</time></trkpt><trkpt lat="51.8188372348" lon="-2.0361848921"><ele>239.51</ele><time>2014-07-23T09:27:07Z</time></trkpt><trkpt lat="51.8186714407" lon="-2.0361402165"><ele>240.47</ele><time>2014-07-23T09:27:24Z</time></trkpt><trkpt lat="51.8186654896" lon="-2.0361481793"><ele>240.95</ele><time>2014-07-23T09:27:48Z</time></trkpt><trkpt lat="51.8186314590" lon="-2.0361269731"><ele>242.87</ele><time>2014-07-23T09:28:13Z</time></trkpt><trkpt lat="51.8184717000" lon="-2.0360972174"><ele>241.91</ele><time>2014-07-23T09:28:33Z</time></trkpt><trkpt lat="51.8184532598" lon="-2.0360791124"><ele>242.87</ele><time>2014-07-23T09:28:35Z</time></trkpt><trkpt lat="51.8183709495" lon="-2.0359666273"><ele>245.27</ele><time>2014-07-23T09:28:53Z</time></trkpt><trkpt lat="51.8181652576" lon="-2.0358487777"><ele>245.27</ele><time>2014-07-23T09:29:15Z</time></trkpt><trkpt lat="51.8180080969" lon="-2.0356455166"><ele>245.75</ele><time>2014-07-23T09:29:37Z</time></trkpt><trkpt lat="51.8178518582" lon="-2.0355308522"><ele>247.20</ele><time>2014-07-23T09:29:56Z</time></trkpt><trkpt lat="51.8177034985" lon="-2.0353408344"><ele>249.12</ele><time>2014-07-23T09:30:16Z</time></trkpt><trkpt lat="51.8176908419" lon="-2.0353341289"><ele>250.08</ele><time>2014-07-23T09:30:18Z</time></trkpt><trkpt lat="51.8174844794" lon="-2.0353223942"><ele>251.52</ele><time>2014-07-23T09:30:40Z</time></trkpt><trkpt lat="51.8174170889" lon="-2.0352405868"><ele>254.89</ele><time>2014-07-23T09:30:50Z</time></trkpt><trkpt lat="51.8172772788" lon="-2.0351260900"><ele>255.85</ele><time>2014-07-23T09:31:11Z</time></trkpt><trkpt lat="51.8171427492" lon="-2.0349580329"><ele>256.81</ele><time>2014-07-23T09:31:32Z</time></trkpt><trkpt lat="51.8170855846" lon="-2.0347661711"><ele>257.77</ele><time>2014-07-23T09:31:52Z</time></trkpt><trkpt lat="51.8170264084" lon="-2.0346835256"><ele>258.73</ele><time>2014-07-23T09:31:57Z</time></trkpt><trkpt lat="51.8169679865" lon="-2.0345541928"><ele>259.21</ele><time>2014-07-23T09:32:09Z</time></trkpt><trkpt lat="51.8168570101" lon="-2.0344676077"><ele>259.21</ele><time>2014-07-23T09:32:28Z</time></trkpt><trkpt lat="51.8167928886" lon="-2.0344018936"><ele>259.69</ele><time>2014-07-23T09:32:47Z</time></trkpt><trkpt lat="51.8167757895" lon="-2.0343711320"><ele>260.65</ele><time>2014-07-23T09:32:49Z</time></trkpt><trkpt lat="51.8166042957" lon="-2.0341806114"><ele>261.62</ele><time>2014-07-23T09:33:09Z</time></trkpt><trkpt lat="51.8164361548" lon="-2.0339931920"><ele>262.58</ele><time>2014-07-23T09:33:28Z</time></trkpt><trkpt lat="51.8163557723" lon="-2.0338815451"><ele>262.58</ele><time>2014-07-23T09:33:38Z</time></trkpt><trkpt lat="51.8162481487" lon="-2.0336792059"><ele>263.06</ele><time>2014-07-23T09:33:56Z</time></trkpt><trkpt lat="51.8160131201" lon="-2.0335622784"><ele>262.58</ele><time>2014-07-23T09:34:19Z</time></trkpt><trkpt lat="51.8158723041" lon="-2.0334630366"><ele>262.58</ele><time>2014-07-23T09:34:36Z</time></trkpt><trkpt lat="51.8157770857" lon="-2.0334510505"><ele>262.58</ele><time>2014-07-23T09:34:57Z</time></trkpt><trkpt lat="51.8156901654" lon="-2.0335621107"><ele>261.62</ele><time>2014-07-23T09:35:17Z</time></trkpt><trkpt lat="51.8156615831" lon="-2.0337253064"><ele>263.54</ele><time>2014-07-23T09:35:28Z</time></trkpt><trkpt lat="51.8156630080" lon="-2.0340507757"><ele>262.10</ele><time>2014-07-23T09:35:46Z</time></trkpt><trkpt lat="51.8156775925" lon="-2.0342827868"><ele>263.54</ele><time>2014-07-23T09:36:07Z</time></trkpt><trkpt lat="51.8156557158" lon="-2.0343464892"><ele>262.10</ele><time>2014-07-23T09:36:13Z</time></trkpt><trkpt lat="51.8156276364" lon="-2.0343767479"><ele>263.06</ele><time>2014-07-23T09:36:18Z</time></trkpt><trkpt lat="51.8155569769" lon="-2.0345688611"><ele>263.54</ele><time>2014-07-23T09:36:33Z</time></trkpt><trkpt lat="51.8154835515" lon="-2.0346418675"><ele>262.58</ele><time>2014-07-23T09:36:52Z</time></trkpt><trkpt lat="51.8154503591" lon="-2.0346589666"><ele>263.54</ele><time>2014-07-23T09:36:57Z</time></trkpt><trkpt lat="51.8152808771" lon="-2.0348456316"><ele>263.06</ele><time>2014-07-23T09:37:17Z</time></trkpt><trkpt lat="51.8151577469" lon="-2.0351208095"><ele>264.50</ele><time>2014-07-23T09:37:34Z</time></trkpt><trkpt lat="51.8150818069" lon="-2.0353185385"><ele>264.98</ele><time>2014-07-23T09:37:47Z</time></trkpt><trkpt lat="51.8150636181" lon="-2.0353801455"><ele>264.98</ele><time>2014-07-23T09:37:51Z</time></trkpt><trkpt lat="51.8149502948" lon="-2.0355585124"><ele>266.42</ele><time>2014-07-23T09:38:10Z</time></trkpt><trkpt lat="51.8149426673" lon="-2.0355917048"><ele>264.50</ele><time>2014-07-23T09:38:12Z</time></trkpt><trkpt lat="51.8148071319" lon="-2.0358834788"><ele>266.90</ele><time>2014-07-23T09:38:34Z</time></trkpt><trkpt lat="51.8147905357" lon="-2.0359200239"><ele>266.90</ele><time>2014-07-23T09:38:37Z</time></trkpt><trkpt lat="51.8146987539" lon="-2.0360974688"><ele>267.86</ele><time>2014-07-23T09:38:50Z</time></trkpt><trkpt lat="51.8145995121" lon="-2.0362567250"><ele>268.35</ele><time>2014-07-23T09:39:09Z</time></trkpt><trkpt lat="51.8145860173" lon="-2.0362764224"><ele>269.31</ele><time>2014-07-23T09:39:11Z</time></trkpt><trkpt lat="51.8144202232" lon="-2.0365090203"><ele>269.31</ele><time>2014-07-23T09:39:31Z</time></trkpt><trkpt lat="51.8143094145" lon="-2.0367256925"><ele>270.27</ele><time>2014-07-23T09:39:49Z</time></trkpt><trkpt lat="51.8141906429" lon="-2.0369599666"><ele>271.23</ele><time>2014-07-23T09:40:08Z</time></trkpt><trkpt lat="51.8141818419" lon="-2.0369769819"><ele>271.23</ele><time>2014-07-23T09:40:09Z</time></trkpt><trkpt lat="51.8140434567" lon="-2.0371776447"><ele>271.23</ele><time>2014-07-23T09:40:28Z</time></trkpt><trkpt lat="51.8139224220" lon="-2.0375373960"><ele>272.19</ele><time>2014-07-23T09:40:51Z</time></trkpt><trkpt lat="51.8138359208" lon="-2.0377013460"><ele>272.19</ele><time>2014-07-23T09:41:08Z</time></trkpt><trkpt lat="51.8137593102" lon="-2.0378029346"><ele>272.67</ele><time>2014-07-23T09:41:22Z</time></trkpt><trkpt lat="51.8137412053" lon="-2.0378330257"><ele>272.67</ele><time>2014-07-23T09:41:25Z</time></trkpt><trkpt lat="51.8136327434" lon="-2.0381164178"><ele>273.15</ele><time>2014-07-23T09:41:45Z</time></trkpt><trkpt lat="51.8135621678" lon="-2.0383593254"><ele>272.67</ele><time>2014-07-23T09:41:59Z</time></trkpt><trkpt lat="51.8135184981" lon="-2.0385192521"><ele>272.19</ele><time>2014-07-23T09:42:10Z</time></trkpt><trkpt lat="51.8134180829" lon="-2.0387495868"><ele>273.63</ele><time>2014-07-23T09:42:31Z</time></trkpt><trkpt lat="51.8133063521" lon="-2.0390950050"><ele>273.63</ele><time>2014-07-23T09:42:52Z</time></trkpt><trkpt lat="51.8132000696" lon="-2.0392835140"><ele>273.63</ele><time>2014-07-23T09:43:11Z</time></trkpt><trkpt lat="51.8131934479" lon="-2.0393543411"><ele>272.67</ele><time>2014-07-23T09:43:23Z</time></trkpt><trkpt lat="51.8130862433" lon="-2.0395472925"><ele>272.19</ele><time>2014-07-23T09:43:41Z</time></trkpt><trkpt lat="51.8130785320" lon="-2.0395602845"><ele>273.15</ele><time>2014-07-23T09:43:42Z</time></trkpt><trkpt lat="51.8130113930" lon="-2.0397580974"><ele>274.11</ele><time>2014-07-23T09:43:56Z</time></trkpt><trkpt lat="51.8129991554" lon="-2.0397942234"><ele>272.67</ele><time>2014-07-23T09:43:58Z</time></trkpt><trkpt lat="51.8129354529" lon="-2.0399796311"><ele>273.15</ele><time>2014-07-23T09:44:16Z</time></trkpt><trkpt lat="51.8129216228" lon="-2.0399617776"><ele>274.11</ele><time>2014-07-23T09:44:33Z</time></trkpt><trkpt lat="51.8128876761" lon="-2.0400119014"><ele>273.15</ele><time>2014-07-23T09:44:42Z</time></trkpt><trkpt lat="51.8128823955" lon="-2.0400227979"><ele>273.63</ele><time>2014-07-23T09:44:43Z</time></trkpt><trkpt lat="51.8128518015" lon="-2.0400869194"><ele>273.63</ele><time>2014-07-23T09:44:47Z</time></trkpt><trkpt lat="51.8127537332" lon="-2.0402704831"><ele>272.67</ele><time>2014-07-23T09:45:03Z</time></trkpt><trkpt lat="51.8127477821" lon="-2.0402771886"><ele>272.67</ele><time>2014-07-23T09:45:04Z</time></trkpt><trkpt lat="51.8127329461" lon="-2.0403139014"><ele>274.11</ele><time>2014-07-23T09:45:07Z</time></trkpt><trkpt lat="51.8127128296" lon="-2.0403799508"><ele>274.11</ele><time>2014-07-23T09:45:10Z</time></trkpt><trkpt lat="51.8126735184" lon="-2.0405284781"><ele>273.63</ele><time>2014-07-23T09:45:27Z</time></trkpt><trkpt lat="51.8126604427" lon="-2.0405697171"><ele>274.11</ele><time>2014-07-23T09:45:30Z</time></trkpt><trkpt lat="51.8126093131" lon="-2.0407120418"><ele>272.67</ele><time>2014-07-23T09:45:43Z</time></trkpt><trkpt lat="51.8125906214" lon="-2.0407846291"><ele>273.15</ele><time>2014-07-23T09:45:48Z</time></trkpt><trkpt lat="51.8125866819" lon="-2.0409120340"><ele>273.63</ele><time>2014-07-23T09:45:52Z</time></trkpt><trkpt lat="51.8125798088" lon="-2.0410295483"><ele>273.15</ele><time>2014-07-23T09:46:12Z</time></trkpt><trkpt lat="51.8125723489" lon="-2.0410466474"><ele>273.63</ele><time>2014-07-23T09:46:14Z</time></trkpt><trkpt lat="51.8125533219" lon="-2.0413038880"><ele>273.15</ele><time>2014-07-23T09:46:33Z</time></trkpt><trkpt lat="51.8125487957" lon="-2.0413183887"><ele>273.15</ele><time>2014-07-23T09:46:42Z</time></trkpt><trkpt lat="51.8125462811" lon="-2.0414410159"><ele>272.19</ele><time>2014-07-23T09:46:48Z</time></trkpt><trkpt lat="51.8125507236" lon="-2.0416424330"><ele>271.23</ele><time>2014-07-23T09:46:58Z</time></trkpt><trkpt lat="51.8125564232" lon="-2.0421311818"><ele>271.71</ele><time>2014-07-23T09:47:23Z</time></trkpt><trkpt lat="51.8125549145" lon="-2.0422103908"><ele>270.75</ele><time>2014-07-23T09:47:27Z</time></trkpt><trkpt lat="51.8125451077" lon="-2.0425223652"><ele>271.23</ele><time>2014-07-23T09:47:45Z</time></trkpt><trkpt lat="51.8125246558" lon="-2.0429562964"><ele>269.79</ele><time>2014-07-23T09:48:07Z</time></trkpt><trkpt lat="51.8124799803" lon="-2.0433438756"><ele>269.79</ele><time>2014-07-23T09:48:27Z</time></trkpt><trkpt lat="51.8124531582" lon="-2.0437359810"><ele>268.35</ele><time>2014-07-23T09:48:49Z</time></trkpt><trkpt lat="51.8123809062" lon="-2.0440290961"><ele>266.90</ele><time>2014-07-23T09:49:12Z</time></trkpt><trkpt lat="51.8123918027" lon="-2.0441358816"><ele>267.38</ele><time>2014-07-23T09:49:22Z</time></trkpt><trkpt lat="51.8123745359" lon="-2.0442904439"><ele>264.98</ele><time>2014-07-23T09:49:34Z</time></trkpt><trkpt lat="51.8123783916" lon="-2.0445297472"><ele>264.02</ele><time>2014-07-23T09:49:56Z</time></trkpt><trkpt lat="51.8124733586" lon="-2.0447879937"><ele>263.54</ele><time>2014-07-23T09:50:15Z</time></trkpt><trkpt lat="51.8122709356" lon="-2.0450086053"><ele>261.62</ele><time>2014-07-23T09:50:25Z</time></trkpt><trkpt lat="51.8122478854" lon="-2.0450314879"><ele>262.58</ele><time>2014-07-23T09:50:26Z</time></trkpt><trkpt lat="51.8121343106" lon="-2.0453329012"><ele>260.65</ele><time>2014-07-23T09:50:49Z</time></trkpt><trkpt lat="51.8121476378" lon="-2.0454085059"><ele>260.65</ele><time>2014-07-23T09:50:54Z</time></trkpt><trkpt lat="51.8121535890" lon="-2.0455348212"><ele>261.14</ele><time>2014-07-23T09:51:01Z</time></trkpt><trkpt lat="51.8121301197" lon="-2.0457401779"><ele>259.21</ele><time>2014-07-23T09:51:12Z</time></trkpt><trkpt lat="51.8120218255" lon="-2.0459459536"><ele>259.21</ele><time>2014-07-23T09:51:30Z</time></trkpt><trkpt lat="51.8119644094" lon="-2.0460419264"><ele>259.21</ele><time>2014-07-23T09:51:38Z</time></trkpt><trkpt lat="51.8118230905" lon="-2.0463682339"><ele>257.77</ele><time>2014-07-23T09:51:58Z</time></trkpt><trkpt lat="51.8117820192" lon="-2.0465203654"><ele>258.73</ele><time>2014-07-23T09:52:17Z</time></trkpt><trkpt lat="51.8117789179" lon="-2.0465185214"><ele>258.25</ele><time>2014-07-23T09:52:26Z</time></trkpt><trkpt lat="51.8117607292" lon="-2.0465261489"><ele>258.73</ele><time>2014-07-23T09:52:28Z</time></trkpt><trkpt lat="51.8116280437" lon="-2.0466285758"><ele>256.81</ele><time>2014-07-23T09:52:48Z</time></trkpt><trkpt lat="51.8115098588" lon="-2.0467268955"><ele>255.85</ele><time>2014-07-23T09:53:00Z</time></trkpt><trkpt lat="51.8113517761" lon="-2.0467574894"><ele>255.37</ele><time>2014-07-23T09:53:21Z</time></trkpt><trkpt lat="51.8113506027" lon="-2.0467610937"><ele>255.85</ele><time>2014-07-23T09:53:42Z</time></trkpt><trkpt lat="51.8112975452" lon="-2.0467184298"><ele>254.89</ele><time>2014-07-23T09:54:04Z</time></trkpt><trkpt lat="51.8112221919" lon="-2.0467139035"><ele>255.37</ele><time>2014-07-23T09:54:10Z</time></trkpt><trkpt lat="51.8110369518" lon="-2.0467144903"><ele>253.44</ele><time>2014-07-23T09:54:31Z</time></trkpt><trkpt lat="51.8108346965" lon="-2.0467180945"><ele>252.96</ele><time>2014-07-23T09:54:51Z</time></trkpt><trkpt lat="51.8105858378" lon="-2.0467767678"><ele>252.48</ele><time>2014-07-23T09:55:12Z</time></trkpt><trkpt lat="51.8104488775" lon="-2.0467509516"><ele>252.00</ele><time>2014-07-23T09:55:34Z</time></trkpt><trkpt lat="51.8102446944" lon="-2.0468259696"><ele>251.52</ele><time>2014-07-23T09:55:55Z</time></trkpt><trkpt lat="51.8100671656" lon="-2.0469620079"><ele>251.04</ele><time>2014-07-23T09:56:15Z</time></trkpt><trkpt lat="51.8100657407" lon="-2.0469620917"><ele>250.56</ele><time>2014-07-23T09:56:19Z</time></trkpt><trkpt lat="51.8098827638" lon="-2.0470564719"><ele>251.04</ele><time>2014-07-23T09:56:39Z</time></trkpt><trkpt lat="51.8096815143" lon="-2.0471398719"><ele>249.60</ele><time>2014-07-23T09:56:48Z</time></trkpt><trkpt lat="51.8094739784" lon="-2.0472306479"><ele>250.56</ele><time>2014-07-23T09:57:08Z</time></trkpt><trkpt lat="51.8093723059" lon="-2.0472249482"><ele>249.12</ele><time>2014-07-23T09:57:24Z</time></trkpt><trkpt lat="51.8092986289" lon="-2.0471974555"><ele>250.08</ele><time>2014-07-23T09:57:34Z</time></trkpt><trkpt lat="51.8092314899" lon="-2.0472183265"><ele>249.12</ele><time>2014-07-23T09:57:43Z</time></trkpt><trkpt lat="51.8091155682" lon="-2.0476377569"><ele>251.04</ele><time>2014-07-23T09:58:03Z</time></trkpt><trkpt lat="51.8090040889" lon="-2.0478724502"><ele>253.44</ele><time>2014-07-23T09:58:23Z</time></trkpt><trkpt lat="51.8090216909" lon="-2.0481534954"><ele>255.37</ele><time>2014-07-23T09:58:41Z</time></trkpt><trkpt lat="51.8091459945" lon="-2.0482271723"><ele>256.81</ele><time>2014-07-23T09:59:01Z</time></trkpt><trkpt lat="51.8091202620" lon="-2.0482826605"><ele>257.29</ele><time>2014-07-23T09:59:26Z</time></trkpt><trkpt lat="51.8091320805" lon="-2.0485761110"><ele>259.21</ele><time>2014-07-23T09:59:45Z</time></trkpt><trkpt lat="51.8091781810" lon="-2.0487530529"><ele>260.65</ele><time>2014-07-23T10:00:00Z</time></trkpt><trkpt lat="51.8092243653" lon="-2.0490382891"><ele>262.10</ele><time>2014-07-23T10:00:22Z</time></trkpt><trkpt lat="51.8092375249" lon="-2.0490413904"><ele>261.62</ele><time>2014-07-23T10:00:43Z</time></trkpt><trkpt lat="51.8091842160" lon="-2.0489771012"><ele>261.62</ele><time>2014-07-23T10:01:12Z</time></trkpt></trkseg><trkseg><trkpt lat="51.8093219306" lon="-2.0490874071"><ele>261.62</ele><time>2014-07-23T10:02:44Z</time></trkpt><trkpt lat="51.8093479984" lon="-2.0490789413"><ele>261.62</ele><time>2014-07-23T10:02:47Z</time></trkpt><trkpt lat="51.8093772512" lon="-2.0488504507"><ele>261.14</ele><time>2014-07-23T10:03:07Z</time></trkpt><trkpt lat="51.8094811868" lon="-2.0486742631"><ele>261.14</ele><time>2014-07-23T10:03:29Z</time></trkpt><trkpt lat="51.8093767483" lon="-2.0486822259"><ele>261.14</ele><time>2014-07-23T10:03:47Z</time></trkpt><trkpt lat="51.8094205018" lon="-2.0485041104"><ele>261.14</ele><time>2014-07-23T10:04:12Z</time></trkpt><trkpt lat="51.8092716392" lon="-2.0486580860"><ele>261.14</ele><time>2014-07-23T10:04:33Z</time></trkpt><trkpt lat="51.8091718946" lon="-2.0490018278"><ele>262.58</ele><time>2014-07-23T10:04:51Z</time></trkpt><trkpt lat="51.8091501854" lon="-2.0490402170"><ele>262.58</ele><time>2014-07-23T10:05:11Z</time></trkpt><trkpt lat="51.8092461582" lon="-2.0490456652"><ele>262.58</ele><time>2014-07-23T10:05:35Z</time></trkpt><trkpt lat="51.8092458230" lon="-2.0490580704"><ele>262.58</ele><time>2014-07-23T10:05:58Z</time></trkpt><trkpt lat="51.8092288915" lon="-2.0493667759"><ele>263.54</ele><time>2014-07-23T10:06:27Z</time></trkpt></trkseg><trkseg><trkpt lat="51.8091773428" lon="-2.0491359383"><ele>262.58</ele><time>2014-07-23T10:06:56Z</time></trkpt><trkpt lat="51.8091340084" lon="-2.0491578151"><ele>263.54</ele><time>2014-07-23T10:07:19Z</time></trkpt><trkpt lat="51.8091789354" lon="-2.0491058473"><ele>263.54</ele><time>2014-07-23T10:07:43Z</time></trkpt><trkpt lat="51.8092148937" lon="-2.0490408037"><ele>263.54</ele><time>2014-07-23T10:08:07Z</time></trkpt><trkpt lat="51.8092121277" lon="-2.0490353554"><ele>263.54</ele><time>2014-07-23T10:08:30Z</time></trkpt><trkpt lat="51.8091708887" lon="-2.0492592361"><ele>263.06</ele><time>2014-07-23T10:08:58Z</time></trkpt></trkseg><trkseg><trkpt lat="51.8091259617" lon="-2.0491982158"><ele>264.02</ele><time>2014-07-23T10:10:23Z</time></trkpt><trkpt lat="51.8091466650" lon="-2.0491283108"><ele>263.54</ele><time>2014-07-23T10:10:24Z</time></trkpt><trkpt lat="51.8092962820" lon="-2.0488656219"><ele>263.54</ele><time>2014-07-23T10:10:34Z</time></trkpt><trkpt lat="51.8092182465" lon="-2.0488431584"><ele>263.54</ele><time>2014-07-23T10:10:49Z</time></trkpt><trkpt lat="51.8091438152" lon="-2.0488093793"><ele>263.06</ele><time>2014-07-23T10:11:11Z</time></trkpt></trkseg><trkseg><trkpt lat="51.8088904303" lon="-2.0488461759"><ele>263.06</ele><time>2014-07-23T10:11:59Z</time></trkpt><trkpt lat="51.8090575654" lon="-2.0490665361"><ele>263.54</ele><time>2014-07-23T10:12:22Z</time></trkpt><trkpt lat="51.8090875726" lon="-2.0490076952"><ele>264.02</ele><time>2014-07-23T10:12:44Z</time></trkpt><trkpt lat="51.8092106190" lon="-2.0488657057"><ele>263.54</ele><time>2014-07-23T10:13:03Z</time></trkpt><trkpt lat="51.8092303164" lon="-2.0490081981"><ele>263.54</ele><time>2014-07-23T10:13:21Z</time></trkpt><trkpt lat="51.8091827910" lon="-2.0490767621"><ele>263.54</ele><time>2014-07-23T10:13:43Z</time></trkpt></trkseg><trkseg><trkpt lat="51.8091600761" lon="-2.0491735730"><ele>264.02</ele><time>2014-07-23T10:14:40Z</time></trkpt><trkpt lat="51.8091763370" lon="-2.0490697213"><ele>262.58</ele><time>2014-07-23T10:15:02Z</time></trkpt><trkpt lat="51.8091256265" lon="-2.0490426477"><ele>264.50</ele><time>2014-07-23T10:15:24Z</time></trkpt><trkpt lat="51.8091505207" lon="-2.0489961281"><ele>264.02</ele><time>2014-07-23T10:15:44Z</time></trkpt><trkpt lat="51.8090622593" lon="-2.0488014165"><ele>264.50</ele><time>2014-07-23T10:16:11Z</time></trkpt><trkpt lat="51.8090506084" lon="-2.0488063619"><ele>264.02</ele><time>2014-07-23T10:16:35Z</time></trkpt><trkpt lat="51.8090778496" lon="-2.0488198567"><ele>264.98</ele><time>2014-07-23T10:16:59Z</time></trkpt><trkpt lat="51.8090859801" lon="-2.0488548093"><ele>264.98</ele><time>2014-07-23T10:17:30Z</time></trkpt><trkpt lat="51.8090163264" lon="-2.0490325894"><ele>265.46</ele><time>2014-07-23T10:17:50Z</time></trkpt><trkpt lat="51.8090946972" lon="-2.0490375347"><ele>265.46</ele><time>2014-07-23T10:18:09Z</time></trkpt><trkpt lat="51.8092343397" lon="-2.0492520276"><ele>265.94</ele><time>2014-07-23T10:18:28Z</time></trkpt><trkpt lat="51.8093698751" lon="-2.0494297240"><ele>265.94</ele><time>2014-07-23T10:18:51Z</time></trkpt><trkpt lat="51.8094044924" lon="-2.0492782630"><ele>265.94</ele><time>2014-07-23T10:19:13Z</time></trkpt><trkpt lat="51.8094303086" lon="-2.0492689591"><ele>266.42</ele><time>2014-07-23T10:19:32Z</time></trkpt><trkpt lat="51.8094747327" lon="-2.0493056718"><ele>265.46</ele><time>2014-07-23T10:19:52Z</time></trkpt><trkpt lat="51.8094653450" lon="-2.0493184961"><ele>265.94</ele><time>2014-07-23T10:19:53Z</time></trkpt><trkpt lat="51.8094013073" lon="-2.0498042274"><ele>266.42</ele><time>2014-07-23T10:20:14Z</time></trkpt><trkpt lat="51.8094013911" lon="-2.0497862902"><ele>266.42</ele><time>2014-07-23T10:20:32Z</time></trkpt><trkpt lat="51.8094767444" lon="-2.0492413826"><ele>264.50</ele><time>2014-07-23T10:20:51Z</time></trkpt><trkpt lat="51.8095478229" lon="-2.0493555441"><ele>266.42</ele><time>2014-07-23T10:21:08Z</time></trkpt><trkpt lat="51.8095141277" lon="-2.0493503474"><ele>266.42</ele><time>2014-07-23T10:21:30Z</time></trkpt><trkpt lat="51.8095046561" lon="-2.0493177418"><ele>265.46</ele><time>2014-07-23T10:21:50Z</time></trkpt><trkpt lat="51.8095039017" lon="-2.0494175702"><ele>267.38</ele><time>2014-07-23T10:22:00Z</time></trkpt><trkpt lat="51.8095262814" lon="-2.0496340748"><ele>267.38</ele><time>2014-07-23T10:22:20Z</time></trkpt><trkpt lat="51.8095882237" lon="-2.0499173831"><ele>268.83</ele><time>2014-07-23T10:22:38Z</time></trkpt><trkpt lat="51.8098125234" lon="-2.0498392638"><ele>266.90</ele><time>2014-07-23T10:23:02Z</time></trkpt><trkpt lat="51.8099809159" lon="-2.0498724561"><ele>269.31</ele><time>2014-07-23T10:23:21Z</time></trkpt><trkpt lat="51.8100844324" lon="-2.0498903934"><ele>269.79</ele><time>2014-07-23T10:23:28Z</time></trkpt><trkpt lat="51.8101127632" lon="-2.0499029662"><ele>269.79</ele><time>2014-07-23T10:23:33Z</time></trkpt><trkpt lat="51.8102098256" lon="-2.0499575324"><ele>268.83</ele><time>2014-07-23T10:23:47Z</time></trkpt><trkpt lat="51.8102618773" lon="-2.0499526709"><ele>270.75</ele><time>2014-07-23T10:23:52Z</time></trkpt><trkpt lat="51.8103394099" lon="-2.0498841908"><ele>271.71</ele><time>2014-07-23T10:24:13Z</time></trkpt><trkpt lat="51.8104387354" lon="-2.0499120187"><ele>272.19</ele><time>2014-07-23T10:24:16Z</time></trkpt><trkpt lat="51.8105953094" lon="-2.0499652438"><ele>272.19</ele><time>2014-07-23T10:24:20Z</time></trkpt><trkpt lat="51.8109099660" lon="-2.0500773937"><ele>271.23</ele><time>2014-07-23T10:24:40Z</time></trkpt><trkpt lat="51.8109874148" lon="-2.0500384178"><ele>272.67</ele><time>2014-07-23T10:24:53Z</time></trkpt><trkpt lat="51.8110644445" lon="-2.0500455424"><ele>271.71</ele><time>2014-07-23T10:24:59Z</time></trkpt><trkpt lat="51.8112143967" lon="-2.0500443690"><ele>274.11</ele><time>2014-07-23T10:25:12Z</time></trkpt><trkpt lat="51.8113703839" lon="-2.0501426887"><ele>275.07</ele><time>2014-07-23T10:25:32Z</time></trkpt><trkpt lat="51.8114788458" lon="-2.0502319559"><ele>275.07</ele><time>2014-07-23T10:25:48Z</time></trkpt><trkpt lat="51.8117078394" lon="-2.0503153559"><ele>274.11</ele><time>2014-07-23T10:26:11Z</time></trkpt><trkpt lat="51.8118702807" lon="-2.0504161064"><ele>277.00</ele><time>2014-07-23T10:26:28Z</time></trkpt><trkpt lat="51.8120079953" lon="-2.0504472032"><ele>275.07</ele><time>2014-07-23T10:26:41Z</time></trkpt><trkpt lat="51.8120883778" lon="-2.0504922140"><ele>275.07</ele><time>2014-07-23T10:26:58Z</time></trkpt><trkpt lat="51.8122491427" lon="-2.0506207086"><ele>277.96</ele><time>2014-07-23T10:27:17Z</time></trkpt><trkpt lat="51.8124720175" lon="-2.0506892726"><ele>277.48</ele><time>2014-07-23T10:27:41Z</time></trkpt><trkpt lat="51.8126503006" lon="-2.0507131610"><ele>278.92</ele><time>2014-07-23T10:28:00Z</time></trkpt><trkpt lat="51.8126768712" lon="-2.0507385582"><ele>277.48</ele><time>2014-07-23T10:28:03Z</time></trkpt><trkpt lat="51.8127534818" lon="-2.0508077089"><ele>279.40</ele><time>2014-07-23T10:28:13Z</time></trkpt><trkpt lat="51.8128693197" lon="-2.0509357844"><ele>280.36</ele><time>2014-07-23T10:28:30Z</time></trkpt><trkpt lat="51.8130672164" lon="-2.0509924460"><ele>280.36</ele><time>2014-07-23T10:28:49Z</time></trkpt><trkpt lat="51.8131766841" lon="-2.0511018299"><ele>281.80</ele><time>2014-07-23T10:29:08Z</time></trkpt><trkpt lat="51.8131905142" lon="-2.0511041768"><ele>282.28</ele><time>2014-07-23T10:29:10Z</time></trkpt><trkpt lat="51.8132076133" lon="-2.0511128101"><ele>280.84</ele><time>2014-07-23T10:29:12Z</time></trkpt><trkpt lat="51.8132891692" lon="-2.0511344355"><ele>280.84</ele><time>2014-07-23T10:29:22Z</time></trkpt><trkpt lat="51.8133112136" lon="-2.0511428174"><ele>282.28</ele><time>2014-07-23T10:29:24Z</time></trkpt><trkpt lat="51.8134317454" lon="-2.0512769278"><ele>281.32</ele><time>2014-07-23T10:29:42Z</time></trkpt><trkpt lat="51.8134166580" lon="-2.0513168257"><ele>282.77</ele><time>2014-07-23T10:29:46Z</time></trkpt><trkpt lat="51.8134088628" lon="-2.0513693802"><ele>281.80</ele><time>2014-07-23T10:29:49Z</time></trkpt><trkpt lat="51.8134009838" lon="-2.0514416322"><ele>281.80</ele><time>2014-07-23T10:29:54Z</time></trkpt><trkpt lat="51.8133968767" lon="-2.0516612381"><ele>283.25</ele><time>2014-07-23T10:30:12Z</time></trkpt><trkpt lat="51.8134025764" lon="-2.0517130382"><ele>281.32</ele><time>2014-07-23T10:30:15Z</time></trkpt><trkpt lat="51.8134488445" lon="-2.0521079935"><ele>282.28</ele><time>2014-07-23T10:30:34Z</time></trkpt><trkpt lat="51.8134780135" lon="-2.0523904637"><ele>282.28</ele><time>2014-07-23T10:30:52Z</time></trkpt><trkpt lat="51.8134871498" lon="-2.0524296910"><ele>283.25</ele><time>2014-07-23T10:30:54Z</time></trkpt><trkpt lat="51.8134924304" lon="-2.0525834989"><ele>282.28</ele><time>2014-07-23T10:31:04Z</time></trkpt><trkpt lat="51.8135288078" lon="-2.0527713373"><ele>282.28</ele><time>2014-07-23T10:31:17Z</time></trkpt><trkpt lat="51.8135894090" lon="-2.0529819746"><ele>281.80</ele><time>2014-07-23T10:31:29Z</time></trkpt><trkpt lat="51.8135963660" lon="-2.0530198608"><ele>283.25</ele><time>2014-07-23T10:31:31Z</time></trkpt><trkpt lat="51.8136164825" lon="-2.0531950425"><ele>282.28</ele><time>2014-07-23T10:31:41Z</time></trkpt><trkpt lat="51.8136276305" lon="-2.0532299951"><ele>283.25</ele><time>2014-07-23T10:31:43Z</time></trkpt><trkpt lat="51.8136581406" lon="-2.0535528660"><ele>283.73</ele><time>2014-07-23T10:32:03Z</time></trkpt><trkpt lat="51.8136666901" lon="-2.0535887405"><ele>283.25</ele><time>2014-07-23T10:32:05Z</time></trkpt><trkpt lat="51.8136743177" lon="-2.0536143892"><ele>284.21</ele><time>2014-07-23T10:32:07Z</time></trkpt><trkpt lat="51.8137205020" lon="-2.0538752340"><ele>283.25</ele><time>2014-07-23T10:32:22Z</time></trkpt><trkpt lat="51.8137233518" lon="-2.0539681055"><ele>285.17</ele><time>2014-07-23T10:32:27Z</time></trkpt><trkpt lat="51.8137460668" lon="-2.0540485717"><ele>285.17</ele><time>2014-07-23T10:32:32Z</time></trkpt><trkpt lat="51.8137563765" lon="-2.0541841909"><ele>284.69</ele><time>2014-07-23T10:32:50Z</time></trkpt><trkpt lat="51.8137893174" lon="-2.0545385778"><ele>285.17</ele><time>2014-07-23T10:33:14Z</time></trkpt><trkpt lat="51.8137838691" lon="-2.0546237379"><ele>286.13</ele><time>2014-07-23T10:33:20Z</time></trkpt><trkpt lat="51.8138218392" lon="-2.0549910329"><ele>286.13</ele><time>2014-07-23T10:33:42Z</time></trkpt><trkpt lat="51.8138286285" lon="-2.0551376324"><ele>285.17</ele><time>2014-07-23T10:33:51Z</time></trkpt><trkpt lat="51.8138625752" lon="-2.0554774348"><ele>286.61</ele><time>2014-07-23T10:34:11Z</time></trkpt><trkpt lat="51.8138867151" lon="-2.0555994753"><ele>285.17</ele><time>2014-07-23T10:34:19Z</time></trkpt><trkpt lat="51.8138876371" lon="-2.0556444023"><ele>287.09</ele><time>2014-07-23T10:34:22Z</time></trkpt><trkpt lat="51.8139230087" lon="-2.0559933409"><ele>286.61</ele><time>2014-07-23T10:34:44Z</time></trkpt><trkpt lat="51.8139489926" lon="-2.0561347436"><ele>286.13</ele><time>2014-07-23T10:34:53Z</time></trkpt><trkpt lat="51.8140035588" lon="-2.0564157888"><ele>287.57</ele><time>2014-07-23T10:35:13Z</time></trkpt><trkpt lat="51.8140056543" lon="-2.0564356539"><ele>286.61</ele><time>2014-07-23T10:35:15Z</time></trkpt><trkpt lat="51.8140529282" lon="-2.0567975007"><ele>287.09</ele><time>2014-07-23T10:35:35Z</time></trkpt><trkpt lat="51.8140603881" lon="-2.0568471216"><ele>286.13</ele><time>2014-07-23T10:35:39Z</time></trkpt><trkpt lat="51.8140958436" lon="-2.0572120696"><ele>286.61</ele><time>2014-07-23T10:36:02Z</time></trkpt><trkpt lat="51.8141003698" lon="-2.0572305098"><ele>286.13</ele><time>2014-07-23T10:36:03Z</time></trkpt><trkpt lat="51.8141085003" lon="-2.0572880097"><ele>288.05</ele><time>2014-07-23T10:36:06Z</time></trkpt><trkpt lat="51.8141132779" lon="-2.0573266502"><ele>286.13</ele><time>2014-07-23T10:36:08Z</time></trkpt><trkpt lat="51.8141368311" lon="-2.0574859902"><ele>288.05</ele><time>2014-07-23T10:36:18Z</time></trkpt><trkpt lat="51.8141810875" lon="-2.0577148162"><ele>286.13</ele><time>2014-07-23T10:36:32Z</time></trkpt><trkpt lat="51.8141784053" lon="-2.0577556361"><ele>287.57</ele><time>2014-07-23T10:36:34Z</time></trkpt><trkpt lat="51.8142377492" lon="-2.0580821112"><ele>286.61</ele><time>2014-07-23T10:36:53Z</time></trkpt><trkpt lat="51.8142768927" lon="-2.0581816882"><ele>287.09</ele><time>2014-07-23T10:37:11Z</time></trkpt><trkpt lat="51.8143191375" lon="-2.0581933390"><ele>286.61</ele><time>2014-07-23T10:37:16Z</time></trkpt><trkpt lat="51.8144342210" lon="-2.0581537765"><ele>287.09</ele><time>2014-07-23T10:37:32Z</time></trkpt><trkpt lat="51.8147017714" lon="-2.0581317320"><ele>287.57</ele><time>2014-07-23T10:37:53Z</time></trkpt><trkpt lat="51.8149153423" lon="-2.0581495017"><ele>288.53</ele><time>2014-07-23T10:38:14Z</time></trkpt><trkpt lat="51.8150016759" lon="-2.0581215061"><ele>288.53</ele><time>2014-07-23T10:38:22Z</time></trkpt><trkpt lat="51.8151583336" lon="-2.0581148006"><ele>289.49</ele><time>2014-07-23T10:38:39Z</time></trkpt><trkpt lat="51.8153274804" lon="-2.0581278764"><ele>288.05</ele><time>2014-07-23T10:38:58Z</time></trkpt><trkpt lat="51.8153517041" lon="-2.0581387728"><ele>289.49</ele><time>2014-07-23T10:39:01Z</time></trkpt><trkpt lat="51.8154645246" lon="-2.0582118630"><ele>290.46</ele><time>2014-07-23T10:39:21Z</time></trkpt><trkpt lat="51.8156601582" lon="-2.0583314728"><ele>289.49</ele><time>2014-07-23T10:39:44Z</time></trkpt><trkpt lat="51.8157014810" lon="-2.0583704486"><ele>289.01</ele><time>2014-07-23T10:39:49Z</time></trkpt><trkpt lat="51.8158682808" lon="-2.0584362466"><ele>289.01</ele><time>2014-07-23T10:40:06Z</time></trkpt><trkpt lat="51.8159067538" lon="-2.0584537648"><ele>288.53</ele><time>2014-07-23T10:40:10Z</time></trkpt><trkpt lat="51.8159259483" lon="-2.0584632363"><ele>290.46</ele><time>2014-07-23T10:40:12Z</time></trkpt><trkpt lat="51.8159504235" lon="-2.0584804192"><ele>288.53</ele><time>2014-07-23T10:40:15Z</time></trkpt><trkpt lat="51.8161030579" lon="-2.0585592091"><ele>289.49</ele><time>2014-07-23T10:40:34Z</time></trkpt><trkpt lat="51.8162750546" lon="-2.0586307067"><ele>289.49</ele><time>2014-07-23T10:40:52Z</time></trkpt><trkpt lat="51.8164574448" lon="-2.0587071497"><ele>289.01</ele><time>2014-07-23T10:41:13Z</time></trkpt><trkpt lat="51.8166602030" lon="-2.0587972552"><ele>289.97</ele><time>2014-07-23T10:41:34Z</time></trkpt><trkpt lat="51.8168458622" lon="-2.0588683337"><ele>291.42</ele><time>2014-07-23T10:41:54Z</time></trkpt><trkpt lat="51.8168930523" lon="-2.0588874444"><ele>289.01</ele><time>2014-07-23T10:42:00Z</time></trkpt><trkpt lat="51.8170248996" lon="-2.0589194633"><ele>290.46</ele><time>2014-07-23T10:42:13Z</time></trkpt><trkpt lat="51.8172089662" lon="-2.0590125863"><ele>288.05</ele><time>2014-07-23T10:42:32Z</time></trkpt><trkpt lat="51.8172170129" lon="-2.0590141788"><ele>289.01</ele><time>2014-07-23T10:42:33Z</time></trkpt><trkpt lat="51.8173678871" lon="-2.0590380672"><ele>287.57</ele><time>2014-07-23T10:42:50Z</time></trkpt><trkpt lat="51.8173742574" lon="-2.0590450242"><ele>288.53</ele><time>2014-07-23T10:42:51Z</time></trkpt><trkpt lat="51.8174622674" lon="-2.0590894483"><ele>288.05</ele><time>2014-07-23T10:43:01Z</time></trkpt><trkpt lat="51.8175617605" lon="-2.0591322798"><ele>288.53</ele><time>2014-07-23T10:43:11Z</time></trkpt><trkpt lat="51.8176888302" lon="-2.0592071302"><ele>288.53</ele><time>2014-07-23T10:43:29Z</time></trkpt><trkpt lat="51.8178380281" lon="-2.0592409093"><ele>288.05</ele><time>2014-07-23T10:43:46Z</time></trkpt><trkpt lat="51.8180225138" lon="-2.0592966489"><ele>287.09</ele><time>2014-07-23T10:44:07Z</time></trkpt><trkpt lat="51.8180608191" lon="-2.0593166817"><ele>286.61</ele><time>2014-07-23T10:44:14Z</time></trkpt><trkpt lat="51.8182680197" lon="-2.0593820605"><ele>285.65</ele><time>2014-07-23T10:44:34Z</time></trkpt><trkpt lat="51.8184121046" lon="-2.0594517980"><ele>285.17</ele><time>2014-07-23T10:44:51Z</time></trkpt><trkpt lat="51.8185343966" lon="-2.0594650414"><ele>284.69</ele><time>2014-07-23T10:45:09Z</time></trkpt><trkpt lat="51.8186487257" lon="-2.0593694877"><ele>283.25</ele><time>2014-07-23T10:45:28Z</time></trkpt><trkpt lat="51.8186943233" lon="-2.0593323559"><ele>283.73</ele><time>2014-07-23T10:45:33Z</time></trkpt><trkpt lat="51.8188374862" lon="-2.0593319368"><ele>282.28</ele><time>2014-07-23T10:45:52Z</time></trkpt><trkpt lat="51.8188197166" lon="-2.0593370497"><ele>282.77</ele><time>2014-07-23T10:46:11Z</time></trkpt><trkpt lat="51.8188120052" lon="-2.0593491197"><ele>281.80</ele><time>2014-07-23T10:46:28Z</time></trkpt><trkpt lat="51.8188320380" lon="-2.0593916997"><ele>282.28</ele><time>2014-07-23T10:46:47Z</time></trkpt><trkpt lat="51.8188323732" lon="-2.0594559889"><ele>281.32</ele><time>2014-07-23T10:46:59Z</time></trkpt><trkpt lat="51.8188363127" lon="-2.0597152412"><ele>282.28</ele><time>2014-07-23T10:47:18Z</time></trkpt><trkpt lat="51.8188038748" lon="-2.0601160638"><ele>282.77</ele><time>2014-07-23T10:47:43Z</time></trkpt><trkpt lat="51.8188036233" lon="-2.0604191534"><ele>283.25</ele><time>2014-07-23T10:48:05Z</time></trkpt><trkpt lat="51.8188037071" lon="-2.0604370907"><ele>282.77</ele><time>2014-07-23T10:48:06Z</time></trkpt><trkpt lat="51.8188042101" lon="-2.0608007815"><ele>282.77</ele><time>2014-07-23T10:48:30Z</time></trkpt><trkpt lat="51.8188420963" lon="-2.0608624723"><ele>283.25</ele><time>2014-07-23T10:48:34Z</time></trkpt><trkpt lat="51.8189343810" lon="-2.0611104928"><ele>281.80</ele><time>2014-07-23T10:48:54Z</time></trkpt><trkpt lat="51.8189466186" lon="-2.0614090562"><ele>282.77</ele><time>2014-07-23T10:49:15Z</time></trkpt><trkpt lat="51.8189948983" lon="-2.0616362896"><ele>282.28</ele><time>2014-07-23T10:49:35Z</time></trkpt><trkpt lat="51.8190990854" lon="-2.0618868247"><ele>282.28</ele><time>2014-07-23T10:49:53Z</time></trkpt><trkpt lat="51.8191973213" lon="-2.0621906687"><ele>281.80</ele><time>2014-07-23T10:50:14Z</time></trkpt><trkpt lat="51.8191952258" lon="-2.0624220930"><ele>280.36</ele><time>2014-07-23T10:50:29Z</time></trkpt><trkpt lat="51.8191919569" lon="-2.0624633320"><ele>281.80</ele><time>2014-07-23T10:50:31Z</time></trkpt><trkpt lat="51.8192917015" lon="-2.0627927408"><ele>281.32</ele><time>2014-07-23T10:50:52Z</time></trkpt><trkpt lat="51.8193170149" lon="-2.0628338959"><ele>280.84</ele><time>2014-07-23T10:50:56Z</time></trkpt><trkpt lat="51.8193772808" lon="-2.0629229955"><ele>280.84</ele><time>2014-07-23T10:51:09Z</time></trkpt><trkpt lat="51.8193872552" lon="-2.0629238337"><ele>280.36</ele><time>2014-07-23T10:51:26Z</time></trkpt><trkpt lat="51.8194124848" lon="-2.0629725326"><ele>279.88</ele><time>2014-07-23T10:51:30Z</time></trkpt><trkpt lat="51.8194575794" lon="-2.0631086547"><ele>279.88</ele><time>2014-07-23T10:51:37Z</time></trkpt><trkpt lat="51.8194683082" lon="-2.0631436910"><ele>279.88</ele><time>2014-07-23T10:51:39Z</time></trkpt><trkpt lat="51.8195088767" lon="-2.0632493868"><ele>279.40</ele><time>2014-07-23T10:51:52Z</time></trkpt><trkpt lat="51.8195270654" lon="-2.0632856805"><ele>278.92</ele><time>2014-07-23T10:52:15Z</time></trkpt><trkpt lat="51.8196284864" lon="-2.0635135006"><ele>277.48</ele><time>2014-07-23T10:52:33Z</time></trkpt><trkpt lat="51.8196429033" lon="-2.0636653807"><ele>276.04</ele><time>2014-07-23T10:52:49Z</time></trkpt><trkpt lat="51.8196632713" lon="-2.0636855811"><ele>277.96</ele><time>2014-07-23T10:52:53Z</time></trkpt><trkpt lat="51.8196920212" lon="-2.0637229644"><ele>277.00</ele><time>2014-07-23T10:52:55Z</time></trkpt><trkpt lat="51.8197722360" lon="-2.0638064481"><ele>277.00</ele><time>2014-07-23T10:53:01Z</time></trkpt><trkpt lat="51.8198166601" lon="-2.0638809633"><ele>276.04</ele><time>2014-07-23T10:53:06Z</time></trkpt><trkpt lat="51.8198472541" lon="-2.0639381278"><ele>277.00</ele><time>2014-07-23T10:53:10Z</time></trkpt><trkpt lat="51.8200173229" lon="-2.0643325802"><ele>275.07</ele><time>2014-07-23T10:53:33Z</time></trkpt><trkpt lat="51.8201161455" lon="-2.0645419601"><ele>273.15</ele><time>2014-07-23T10:53:46Z</time></trkpt><trkpt lat="51.8202529382" lon="-2.0648938324"><ele>272.67</ele><time>2014-07-23T10:54:06Z</time></trkpt><trkpt lat="51.8202748988" lon="-2.0649255998"><ele>271.71</ele><time>2014-07-23T10:54:08Z</time></trkpt><trkpt lat="51.8203911558" lon="-2.0651829243"><ele>271.23</ele><time>2014-07-23T10:54:26Z</time></trkpt><trkpt lat="51.8203985319" lon="-2.0652314555"><ele>271.71</ele><time>2014-07-23T10:54:30Z</time></trkpt><trkpt lat="51.8205458019" lon="-2.0655524824"><ele>270.27</ele><time>2014-07-23T10:54:51Z</time></trkpt><trkpt lat="51.8206880428" lon="-2.0657996647"><ele>268.83</ele><time>2014-07-23T10:55:10Z</time></trkpt><trkpt lat="51.8206950836" lon="-2.0658110641"><ele>269.79</ele><time>2014-07-23T10:55:11Z</time></trkpt><trkpt lat="51.8208461255" lon="-2.0660662930"><ele>267.86</ele><time>2014-07-23T10:55:32Z</time></trkpt><trkpt lat="51.8209041283" lon="-2.0662844740"><ele>266.90</ele><time>2014-07-23T10:55:48Z</time></trkpt><trkpt lat="51.8209834211" lon="-2.0664104540"><ele>266.90</ele><time>2014-07-23T10:56:00Z</time></trkpt><trkpt lat="51.8210638035" lon="-2.0666219294"><ele>265.46</ele><time>2014-07-23T10:56:16Z</time></trkpt><trkpt lat="51.8211260810" lon="-2.0667398628"><ele>265.46</ele><time>2014-07-23T10:56:29Z</time></trkpt><trkpt lat="51.8211545795" lon="-2.0668205805"><ele>266.42</ele><time>2014-07-23T10:56:42Z</time></trkpt><trkpt lat="51.8212508038" lon="-2.0669766515"><ele>265.46</ele><time>2014-07-23T10:56:59Z</time></trkpt><trkpt lat="51.8213272467" lon="-2.0670769829"><ele>264.50</ele><time>2014-07-23T10:57:15Z</time></trkpt><trkpt lat="51.8214626983" lon="-2.0671173837"><ele>263.06</ele><time>2014-07-23T10:57:35Z</time></trkpt><trkpt lat="51.8215631135" lon="-2.0669216663"><ele>262.58</ele><time>2014-07-23T10:57:57Z</time></trkpt><trkpt lat="51.8215735909" lon="-2.0669712871"><ele>262.58</ele><time>2014-07-23T10:58:16Z</time></trkpt><trkpt lat="51.8216702342" lon="-2.0671788231"><ele>262.10</ele><time>2014-07-23T10:58:34Z</time></trkpt><trkpt lat="51.8217899278" lon="-2.0674115047"><ele>261.62</ele><time>2014-07-23T10:58:52Z</time></trkpt><trkpt lat="51.8219415564" lon="-2.0676876046"><ele>260.65</ele><time>2014-07-23T10:59:11Z</time></trkpt><trkpt lat="51.8221134692" lon="-2.0679726731"><ele>259.69</ele><time>2014-07-23T10:59:31Z</time></trkpt><trkpt lat="51.8222596496" lon="-2.0681916922"><ele>260.65</ele><time>2014-07-23T10:59:47Z</time></trkpt><trkpt lat="51.8222663552" lon="-2.0682102162"><ele>260.65</ele><time>2014-07-23T10:59:48Z</time></trkpt><trkpt lat="51.8223886471" lon="-2.0684444904"><ele>258.73</ele><time>2014-07-23T11:00:10Z</time></trkpt><trkpt lat="51.8224826921" lon="-2.0686645992"><ele>255.85</ele><time>2014-07-23T11:00:28Z</time></trkpt><trkpt lat="51.8225990329" lon="-2.0684638526"><ele>253.93</ele><time>2014-07-23T11:00:46Z</time></trkpt><trkpt lat="51.8225912377" lon="-2.0683456678"><ele>253.93</ele><time>2014-07-23T11:00:51Z</time></trkpt><trkpt lat="51.8226211611" lon="-2.0680753514"><ele>251.04</ele><time>2014-07-23T11:01:07Z</time></trkpt><trkpt lat="51.8226874620" lon="-2.0678186137"><ele>248.64</ele><time>2014-07-23T11:01:29Z</time></trkpt><trkpt lat="51.8227275275" lon="-2.0675451960"><ele>245.75</ele><time>2014-07-23T11:01:49Z</time></trkpt><trkpt lat="51.8227676768" lon="-2.0672832616"><ele>242.39</ele><time>2014-07-23T11:02:08Z</time></trkpt><trkpt lat="51.8227975164" lon="-2.0671787392"><ele>241.91</ele><time>2014-07-23T11:02:14Z</time></trkpt><trkpt lat="51.8228297029" lon="-2.0670951717"><ele>240.95</ele><time>2014-07-23T11:02:19Z</time></trkpt><trkpt lat="51.8228906393" lon="-2.0668408647"><ele>239.02</ele><time>2014-07-23T11:02:40Z</time></trkpt><trkpt lat="51.8228823412" lon="-2.0664982125"><ele>238.06</ele><time>2014-07-23T11:02:59Z</time></trkpt><trkpt lat="51.8228822574" lon="-2.0661175065"><ele>236.14</ele><time>2014-07-23T11:03:18Z</time></trkpt><trkpt lat="51.8228733726" lon="-2.0660494454"><ele>236.14</ele><time>2014-07-23T11:03:25Z</time></trkpt><trkpt lat="51.8228164595" lon="-2.0658568293"><ele>234.70</ele><time>2014-07-23T11:03:43Z</time></trkpt><trkpt lat="51.8227806687" lon="-2.0653390791"><ele>232.78</ele><time>2014-07-23T11:03:57Z</time></trkpt><trkpt lat="51.8227761425" lon="-2.0653004386"><ele>232.30</ele><time>2014-07-23T11:04:06Z</time></trkpt><trkpt lat="51.8227625638" lon="-2.0652146917"><ele>229.89</ele><time>2014-07-23T11:04:27Z</time></trkpt><trkpt lat="51.8228273559" lon="-2.0650697686"><ele>228.93</ele><time>2014-07-23T11:04:48Z</time></trkpt><trkpt lat="51.8229754642" lon="-2.0648855343"><ele>225.09</ele><time>2014-07-23T11:05:05Z</time></trkpt><trkpt lat="51.8230483029" lon="-2.0646344963"><ele>226.05</ele><time>2014-07-23T11:05:19Z</time></trkpt><trkpt lat="51.8231354747" lon="-2.0643682033"><ele>224.12</ele><time>2014-07-23T11:05:28Z</time></trkpt><trkpt lat="51.8231683318" lon="-2.0642204303"><ele>223.16</ele><time>2014-07-23T11:05:36Z</time></trkpt><trkpt lat="51.8231638055" lon="-2.0639728289"><ele>223.64</ele><time>2014-07-23T11:05:47Z</time></trkpt><trkpt lat="51.8230911344" lon="-2.0636036899"><ele>221.72</ele><time>2014-07-23T11:06:08Z</time></trkpt><trkpt lat="51.8231125083" lon="-2.0633584354"><ele>221.24</ele><time>2014-07-23T11:06:27Z</time></trkpt><trkpt lat="51.8230817467" lon="-2.0633309428"><ele>220.28</ele><time>2014-07-23T11:06:29Z</time></trkpt><trkpt lat="51.8229739554" lon="-2.0632053819"><ele>219.80</ele><time>2014-07-23T11:06:37Z</time></trkpt><trkpt lat="51.8229803257" lon="-2.0631259214"><ele>219.32</ele><time>2014-07-23T11:06:42Z</time></trkpt><trkpt lat="51.8229942396" lon="-2.0630753785"><ele>219.80</ele><time>2014-07-23T11:06:45Z</time></trkpt><trkpt lat="51.8230583612" lon="-2.0627428684"><ele>218.84</ele><time>2014-07-23T11:07:06Z</time></trkpt><trkpt lat="51.8230594508" lon="-2.0627161302"><ele>219.80</ele><time>2014-07-23T11:07:08Z</time></trkpt><trkpt lat="51.8229685910" lon="-2.0625684410"><ele>218.84</ele><time>2014-07-23T11:07:27Z</time></trkpt><trkpt lat="51.8229897972" lon="-2.0623609889"><ele>215.95</ele><time>2014-07-23T11:07:45Z</time></trkpt><trkpt lat="51.8229852710" lon="-2.0623490866"><ele>215.95</ele><time>2014-07-23T11:07:46Z</time></trkpt><trkpt lat="51.8230654020" lon="-2.0620154031"><ele>215.95</ele><time>2014-07-23T11:08:07Z</time></trkpt><trkpt lat="51.8230906315" lon="-2.0619887486"><ele>214.51</ele><time>2014-07-23T11:08:11Z</time></trkpt><trkpt lat="51.8231402524" lon="-2.0618388802"><ele>215.47</ele><time>2014-07-23T11:08:22Z</time></trkpt><trkpt lat="51.8231665716" lon="-2.0618272293"><ele>213.07</ele><time>2014-07-23T11:08:32Z</time></trkpt><trkpt lat="51.8232959043" lon="-2.0616016723"><ele>213.55</ele><time>2014-07-23T11:08:46Z</time></trkpt><trkpt lat="51.8233288452" lon="-2.0612470340"><ele>212.59</ele><time>2014-07-23T11:09:04Z</time></trkpt><trkpt lat="51.8233457766" lon="-2.0611873548"><ele>211.63</ele><time>2014-07-23T11:09:09Z</time></trkpt><trkpt lat="51.8233958166" lon="-2.0610524062"><ele>212.59</ele><time>2014-07-23T11:09:20Z</time></trkpt><trkpt lat="51.8234153464" lon="-2.0609957445"><ele>211.63</ele><time>2014-07-23T11:09:23Z</time></trkpt><trkpt lat="51.8234531488" lon="-2.0608854387"><ele>212.11</ele><time>2014-07-23T11:09:33Z</time></trkpt><trkpt lat="51.8235677294" lon="-2.0605932456"><ele>209.22</ele><time>2014-07-23T11:09:48Z</time></trkpt><trkpt lat="51.8235944677" lon="-2.0604639966"><ele>209.22</ele><time>2014-07-23T11:09:57Z</time></trkpt><trkpt lat="51.8235976528" lon="-2.0604470652"><ele>210.67</ele><time>2014-07-23T11:09:59Z</time></trkpt><trkpt lat="51.8236204516" lon="-2.0603340771"><ele>209.70</ele><time>2014-07-23T11:10:08Z</time></trkpt><trkpt lat="51.8236222956" lon="-2.0600780938"><ele>208.26</ele><time>2014-07-23T11:10:20Z</time></trkpt><trkpt lat="51.8236661330" lon="-2.0598964579"><ele>208.74</ele><time>2014-07-23T11:10:32Z</time></trkpt><trkpt lat="51.8236883450" lon="-2.0598018263"><ele>209.22</ele><time>2014-07-23T11:10:39Z</time></trkpt><trkpt lat="51.8236874230" lon="-2.0597180072"><ele>208.26</ele><time>2014-07-23T11:10:49Z</time></trkpt><trkpt lat="51.8236919492" lon="-2.0596709009"><ele>207.78</ele><time>2014-07-23T11:10:51Z</time></trkpt><trkpt lat="51.8236689828" lon="-2.0593676437"><ele>207.30</ele><time>2014-07-23T11:11:05Z</time></trkpt><trkpt lat="51.8236981519" lon="-2.0591543242"><ele>207.30</ele><time>2014-07-23T11:11:19Z</time></trkpt><trkpt lat="51.8237709906" lon="-2.0589498058"><ele>205.86</ele><time>2014-07-23T11:11:37Z</time></trkpt><trkpt lat="51.8238453381" lon="-2.0587193035"><ele>205.38</ele><time>2014-07-23T11:11:53Z</time></trkpt><trkpt lat="51.8238216173" lon="-2.0586126857"><ele>203.94</ele><time>2014-07-23T11:12:11Z</time></trkpt><trkpt lat="51.8238429073" lon="-2.0583570376"><ele>203.46</ele><time>2014-07-23T11:12:32Z</time></trkpt><trkpt lat="51.8238810450" lon="-2.0581440534"><ele>202.98</ele><time>2014-07-23T11:12:49Z</time></trkpt><trkpt lat="51.8239240441" lon="-2.0578942727"><ele>202.49</ele><time>2014-07-23T11:13:04Z</time></trkpt><trkpt lat="51.8238988146" lon="-2.0576423127"><ele>200.57</ele><time>2014-07-23T11:13:19Z</time></trkpt><trkpt lat="51.8239196856" lon="-2.0573816355"><ele>202.01</ele><time>2014-07-23T11:13:42Z</time></trkpt><trkpt lat="51.8239248823" lon="-2.0571648795"><ele>202.01</ele><time>2014-07-23T11:13:58Z</time></trkpt><trkpt lat="51.8239417300" lon="-2.0570559986"><ele>202.01</ele><time>2014-07-23T11:14:15Z</time></trkpt><trkpt lat="51.8238826375" lon="-2.0569497161"><ele>201.53</ele><time>2014-07-23T11:14:29Z</time></trkpt><trkpt lat="51.8238085415" lon="-2.0568991732"><ele>201.05</ele><time>2014-07-23T11:14:41Z</time></trkpt><trkpt lat="51.8237376306" lon="-2.0567705948"><ele>200.57</ele><time>2014-07-23T11:14:53Z</time></trkpt><trkpt lat="51.8237186037" lon="-2.0566686708"><ele>200.57</ele><time>2014-07-23T11:15:05Z</time></trkpt><trkpt lat="51.8236538116" lon="-2.0565390866"><ele>200.09</ele><time>2014-07-23T11:15:19Z</time></trkpt><trkpt lat="51.8236394785" lon="-2.0565252565"><ele>201.05</ele><time>2014-07-23T11:15:23Z</time></trkpt><trkpt lat="51.8236345332" lon="-2.0565176290"><ele>200.09</ele><time>2014-07-23T11:15:25Z</time></trkpt><trkpt lat="51.8236091360" lon="-2.0564632304"><ele>201.05</ele><time>2014-07-23T11:15:52Z</time></trkpt><trkpt lat="51.8236129079" lon="-2.0564078260"><ele>199.13</ele><time>2014-07-23T11:16:06Z</time></trkpt><trkpt lat="51.8236291688" lon="-2.0562348235"><ele>195.77</ele><time>2014-07-23T11:16:16Z</time></trkpt><trkpt lat="51.8236278277" lon="-2.0562230889"><ele>199.13</ele><time>2014-07-23T11:16:17Z</time></trkpt><trkpt lat="51.8236266542" lon="-2.0562133659"><ele>199.13</ele><time>2014-07-23T11:16:18Z</time></trkpt><trkpt lat="51.8237369601" lon="-2.0561392698"><ele>198.17</ele><time>2014-07-23T11:16:39Z</time></trkpt><trkpt lat="51.8237336073" lon="-2.0558573864"><ele>199.13</ele><time>2014-07-23T11:16:57Z</time></trkpt><trkpt lat="51.8237793725" lon="-2.0555433165"><ele>200.57</ele><time>2014-07-23T11:17:19Z</time></trkpt><trkpt lat="51.8237893470" lon="-2.0553739183"><ele>201.05</ele><time>2014-07-23T11:17:25Z</time></trkpt><trkpt lat="51.8238165881" lon="-2.0551329385"><ele>200.09</ele><time>2014-07-23T11:17:46Z</time></trkpt><trkpt lat="51.8238078710" lon="-2.0550051983"><ele>200.09</ele><time>2014-07-23T11:17:59Z</time></trkpt><trkpt lat="51.8238108046" lon="-2.0546348020"><ele>199.13</ele><time>2014-07-23T11:18:11Z</time></trkpt><trkpt lat="51.8238172587" lon="-2.0544156991"><ele>199.13</ele><time>2014-07-23T11:18:25Z</time></trkpt><trkpt lat="51.8238324299" lon="-2.0542258490"><ele>198.17</ele><time>2014-07-23T11:18:38Z</time></trkpt><trkpt lat="51.8238118943" lon="-2.0540147927"><ele>198.65</ele><time>2014-07-23T11:18:53Z</time></trkpt><trkpt lat="51.8238215335" lon="-2.0538974460"><ele>198.17</ele><time>2014-07-23T11:19:06Z</time></trkpt><trkpt lat="51.8238422368" lon="-2.0538091008"><ele>197.21</ele><time>2014-07-23T11:19:25Z</time></trkpt><trkpt lat="51.8238795362" lon="-2.0535540394"><ele>197.21</ele><time>2014-07-23T11:19:38Z</time></trkpt><trkpt lat="51.8238821346" lon="-2.0532731619"><ele>197.21</ele><time>2014-07-23T11:19:53Z</time></trkpt><trkpt lat="51.8239185959" lon="-2.0531306695"><ele>197.21</ele><time>2014-07-23T11:20:05Z</time></trkpt><trkpt lat="51.8239518721" lon="-2.0529937092"><ele>196.25</ele><time>2014-07-23T11:20:18Z</time></trkpt><trkpt lat="51.8239962123" lon="-2.0528634544"><ele>195.28</ele><time>2014-07-23T11:20:28Z</time></trkpt><trkpt lat="51.8239788618" lon="-2.0528593473"><ele>192.40</ele><time>2014-07-23T11:20:43Z</time></trkpt><trkpt lat="51.8239894230" lon="-2.0528478641"><ele>193.36</ele><time>2014-07-23T11:20:44Z</time></trkpt><trkpt lat="51.8240128085" lon="-2.0528228860"><ele>195.28</ele><time>2014-07-23T11:20:46Z</time></trkpt><trkpt lat="51.8241145648" lon="-2.0524997637"><ele>193.36</ele><time>2014-07-23T11:20:58Z</time></trkpt><trkpt lat="51.8241692148" lon="-2.0523023698"><ele>192.88</ele><time>2014-07-23T11:21:20Z</time></trkpt><trkpt lat="51.8242200091" lon="-2.0520160440"><ele>192.88</ele><time>2014-07-23T11:21:41Z</time></trkpt><trkpt lat="51.8242829572" lon="-2.0517660119"><ele>190.00</ele><time>2014-07-23T11:21:55Z</time></trkpt><trkpt lat="51.8243372720" lon="-2.0515902434"><ele>190.48</ele><time>2014-07-23T11:22:13Z</time></trkpt><trkpt lat="51.8243346736" lon="-2.0515835378"><ele>191.44</ele><time>2014-07-23T11:22:17Z</time></trkpt><trkpt lat="51.8244166486" lon="-2.0512705576"><ele>190.96</ele><time>2014-07-23T11:22:39Z</time></trkpt><trkpt lat="51.8244402856" lon="-2.0511710644"><ele>189.04</ele><time>2014-07-23T11:22:49Z</time></trkpt><trkpt lat="51.8244353402" lon="-2.0511403028"><ele>189.52</ele><time>2014-07-23T11:22:51Z</time></trkpt><trkpt lat="51.8245655950" lon="-2.0507508796"><ele>188.56</ele><time>2014-07-23T11:23:09Z</time></trkpt><trkpt lat="51.8244847935" lon="-2.0505578443"><ele>188.08</ele><time>2014-07-23T11:23:33Z</time></trkpt><trkpt lat="51.8245344143" lon="-2.0504942257"><ele>188.08</ele><time>2014-07-23T11:23:52Z</time></trkpt><trkpt lat="51.8246002961" lon="-2.0503109135"><ele>189.04</ele><time>2014-07-23T11:24:07Z</time></trkpt><trkpt lat="51.8245680258" lon="-2.0501541719"><ele>189.04</ele><time>2014-07-23T11:24:30Z</time></trkpt><trkpt lat="51.8248383421" lon="-2.0498722047"><ele>191.92</ele><time>2014-07-23T11:24:47Z</time></trkpt><trkpt lat="51.8249924015" lon="-2.0495640859"><ele>192.88</ele><time>2014-07-23T11:25:08Z</time></trkpt><trkpt lat="51.8251176272" lon="-2.0493575558"><ele>191.92</ele><time>2014-07-23T11:25:23Z</time></trkpt><trkpt lat="51.8251670804" lon="-2.0492494293"><ele>190.96</ele><time>2014-07-23T11:25:30Z</time></trkpt><trkpt lat="51.8252545036" lon="-2.0490660332"><ele>191.44</ele><time>2014-07-23T11:25:47Z</time></trkpt><trkpt lat="51.8253315333" lon="-2.0488962159"><ele>192.40</ele><time>2014-07-23T11:26:06Z</time></trkpt><trkpt lat="51.8253319524" lon="-2.0488956291"><ele>192.40</ele><time>2014-07-23T11:26:07Z</time></trkpt><trkpt lat="51.8254739419" lon="-2.0486079622"><ele>191.44</ele><time>2014-07-23T11:26:26Z</time></trkpt><trkpt lat="51.8255093973" lon="-2.0485481154"><ele>190.48</ele><time>2014-07-23T11:26:44Z</time></trkpt><trkpt lat="51.8255072180" lon="-2.0485386439"><ele>190.96</ele><time>2014-07-23T11:27:08Z</time></trkpt><trkpt lat="51.8255084753" lon="-2.0484863408"><ele>191.44</ele><time>2014-07-23T11:27:35Z</time></trkpt><trkpt lat="51.8255844992" lon="-2.0482829958"><ele>192.88</ele><time>2014-07-23T11:27:56Z</time></trkpt><trkpt lat="51.8257287517" lon="-2.0480360650"><ele>191.92</ele><time>2014-07-23T11:28:20Z</time></trkpt><trkpt lat="51.8258249760" lon="-2.0480344724"><ele>190.96</ele><time>2014-07-23T11:28:38Z</time></trkpt><trkpt lat="51.8258328550" lon="-2.0480282698"><ele>190.48</ele><time>2014-07-23T11:28:39Z</time></trkpt><trkpt lat="51.8259798735" lon="-2.0479520783"><ele>188.56</ele><time>2014-07-23T11:28:54Z</time></trkpt><trkpt lat="51.8260085396" lon="-2.0479280222"><ele>190.48</ele><time>2014-07-23T11:28:57Z</time></trkpt><trkpt lat="51.8260929454" lon="-2.0476009604"><ele>189.52</ele><time>2014-07-23T11:29:03Z</time></trkpt><trkpt lat="51.8260115571" lon="-2.0473579690"><ele>190.48</ele><time>2014-07-23T11:29:19Z</time></trkpt><trkpt lat="51.8260134850" lon="-2.0473641716"><ele>190.00</ele><time>2014-07-23T11:29:21Z</time></trkpt></trkseg></trk></gpx>